createdAt,value
2022-10-18T00:00:18.374Z,15.60
2022-10-18T00:02:45.039Z,12.40
2022-10-18T00:05:11.737Z,13.85
2022-10-18T00:07:38.381Z,14.05
2022-10-18T00:10:05.744Z,13.40
2022-10-18T00:12:34.761Z,13.65
2022-10-18T00:15:01.928Z,17.27
2022-10-18T00:17:28.793Z,11.90
2022-10-18T00:19:55.971Z,12.95
2022-10-18T00:22:22.766Z,14.70
2022-10-18T00:24:49.431Z,11.35
2022-10-18T00:27:16.071Z,13.85
2022-10-18T00:29:42.731Z,11.45
2022-10-18T00:32:09.500Z,11.85
2022-10-18T00:34:36.160Z,13.82
2022-10-18T00:37:02.789Z,12.27
2022-10-18T00:39:29.469Z,15.55
2022-10-18T00:41:56.183Z,11.93
2022-10-18T00:44:25.858Z,13.15
2022-10-18T00:46:55.235Z,12.93
2022-10-18T00:49:32.312Z,10.80
2022-10-18T00:52:16.172Z,10.63
2022-10-18T00:54:44.913Z,10.75
2022-10-18T00:57:12.099Z,9.77
2022-10-18T00:59:38.993Z,12.68
2022-10-18T01:02:07.298Z,11.05
2022-10-18T01:04:34.597Z,14.80
2022-10-18T01:07:19.329Z,16.85
2022-10-18T01:10:09.771Z,8.07
2022-10-18T01:12:50.811Z,11.50
2022-10-18T01:15:27.635Z,8.40
2022-10-18T01:18:25.791Z,11.35
2022-10-18T01:21:04.652Z,7.80
2022-10-18T01:23:53.201Z,10.00
2022-10-18T01:26:52.337Z,11.30
2022-10-18T01:30:06.920Z,9.40
2022-10-18T01:32:54.449Z,7.47
2022-10-18T01:35:30.875Z,8.57
2022-10-18T01:37:59.973Z,9.10
2022-10-18T01:40:26.975Z,11.15
2022-10-18T01:42:53.757Z,8.90
2022-10-18T01:45:21.900Z,9.68
2022-10-18T01:47:48.716Z,9.23
2022-10-18T01:50:15.793Z,9.50
2022-10-18T01:52:50.074Z,9.15
2022-10-18T01:55:16.911Z,7.97
2022-10-18T01:57:57.577Z,9.15
2022-10-18T02:00:45.704Z,8.38
2022-10-18T02:03:17.976Z,9.43
2022-10-18T02:05:47.574Z,7.28
2022-10-18T02:08:31.981Z,9.13
2022-10-18T02:11:07.361Z,8.73
2022-10-18T02:13:39.289Z,7.70
2022-10-18T02:16:11.230Z,9.18
2022-10-18T02:18:41.759Z,10.35
2022-10-18T02:21:11.653Z,10.13
2022-10-18T02:23:38.735Z,6.53
2022-10-18T02:26:06.172Z,8.15
2022-10-18T02:28:32.921Z,10.48
2022-10-18T02:31:06.090Z,7.13
2022-10-18T02:33:34.506Z,9.73
2022-10-18T02:36:06.736Z,10.77
2022-10-18T02:38:33.677Z,8.60
2022-10-18T02:41:00.348Z,6.60
2022-10-18T02:43:27.077Z,8.40
2022-10-18T02:45:53.822Z,8.93
2022-10-18T02:48:20.571Z,9.70
2022-10-18T02:50:47.239Z,10.98
2022-10-18T02:53:13.958Z,8.10
2022-10-18T02:55:40.590Z,9.35
2022-10-18T02:58:07.359Z,12.82
2022-10-18T03:00:33.976Z,8.20
2022-10-18T03:03:00.661Z,8.15
2022-10-18T03:05:27.313Z,9.00
2022-10-18T03:07:56.973Z,9.30
2022-10-18T03:10:23.642Z,10.18
2022-10-18T03:12:50.295Z,9.63
2022-10-18T03:15:16.966Z,9.77
2022-10-18T03:17:43.657Z,10.48
2022-10-18T03:20:10.898Z,9.18
2022-10-18T03:22:40.692Z,10.95
2022-10-18T03:25:07.609Z,8.63
2022-10-18T03:27:34.527Z,8.52
2022-10-18T03:30:01.318Z,13.10
2022-10-18T03:32:27.970Z,11.15
2022-10-18T03:34:55.158Z,7.68
2022-10-18T03:37:21.848Z,10.60
2022-10-18T03:39:48.544Z,9.38
2022-10-18T03:42:15.232Z,10.75
2022-10-18T03:44:41.890Z,10.32
2022-10-18T03:47:08.807Z,9.13
2022-10-18T03:49:35.439Z,9.23
2022-10-18T03:52:02.156Z,11.32
2022-10-18T03:54:28.861Z,9.15
2022-10-18T03:56:55.493Z,8.30
2022-10-18T03:59:23.136Z,8.05
2022-10-18T04:01:49.880Z,12.13
2022-10-18T04:04:16.764Z,7.88
2022-10-18T04:06:43.393Z,7.70
2022-10-18T04:09:10.505Z,6.70
2022-10-18T04:11:37.153Z,9.05
2022-10-18T04:14:04.003Z,9.20
2022-10-18T04:16:30.814Z,10.25
2022-10-18T04:18:57.528Z,9.98
2022-10-18T04:21:24.224Z,9.85
2022-10-18T04:23:51.174Z,7.88
2022-10-18T04:26:18.111Z,8.98
2022-10-18T04:28:44.889Z,10.48
2022-10-18T04:31:11.997Z,11.48
2022-10-18T04:33:38.909Z,7.40
2022-10-18T04:36:05.895Z,8.27
2022-10-18T04:38:32.683Z,8.13
2022-10-18T04:40:59.366Z,10.52
2022-10-18T04:43:26.173Z,9.30
2022-10-18T04:45:52.785Z,9.63
2022-10-18T04:48:19.991Z,6.38
2022-10-18T04:50:50.634Z,7.78
2022-10-18T04:53:18.094Z,7.97
2022-10-18T04:55:53.822Z,8.18
2022-10-18T04:58:20.519Z,9.45
2022-10-18T05:00:50.245Z,8.55
2022-10-18T05:03:17.170Z,8.18
2022-10-18T05:06:03.065Z,8.52
2022-10-18T05:08:30.522Z,6.60
2022-10-18T05:10:57.311Z,7.38
2022-10-18T05:13:24.034Z,6.25
2022-10-18T05:15:50.743Z,6.60
2022-10-18T05:18:17.527Z,7.35
2022-10-18T05:20:44.258Z,7.28
2022-10-18T05:23:11.028Z,7.38
2022-10-18T05:25:44.146Z,7.10
2022-10-18T05:28:34.117Z,8.95
2022-10-18T05:31:16.141Z,7.88
2022-10-18T05:33:42.879Z,9.90
2022-10-18T05:36:10.494Z,8.73
2022-10-18T05:38:44.113Z,6.93
2022-10-18T05:41:15.504Z,8.82
2022-10-18T05:43:42.430Z,7.88
2022-10-18T05:46:14.563Z,8.52
2022-10-18T05:48:43.515Z,8.10
2022-10-18T05:51:10.215Z,7.60
2022-10-18T05:53:38.083Z,9.48
2022-10-18T05:56:06.153Z,7.57
2022-10-18T05:58:33.421Z,9.60
2022-10-18T06:01:01.488Z,7.25
2022-10-18T06:03:30.426Z,10.07
2022-10-18T06:06:04.442Z,6.32
2022-10-18T06:08:31.397Z,10.75
2022-10-18T06:10:58.282Z,7.63
2022-10-18T06:13:25.074Z,7.32
2022-10-18T06:15:56.055Z,6.47
2022-10-18T06:18:22.921Z,10.80
2022-10-18T06:20:49.769Z,8.55
2022-10-18T06:23:16.593Z,8.13
2022-10-18T06:25:43.463Z,8.27
2022-10-18T06:28:11.515Z,11.43
2022-10-18T06:30:38.923Z,10.05
2022-10-18T06:33:05.731Z,9.65
2022-10-18T06:35:32.622Z,13.13
2022-10-18T06:37:59.279Z,10.57
2022-10-18T06:40:25.999Z,9.35
2022-10-18T06:43:00.607Z,8.07
2022-10-18T06:45:37.427Z,8.82
2022-10-18T06:48:04.186Z,8.63
2022-10-18T06:50:31.012Z,11.15
2022-10-18T06:52:58.196Z,9.65
2022-10-18T06:55:25.074Z,9.18
2022-10-18T06:57:53.308Z,7.90
2022-10-18T07:00:19.996Z,9.75
2022-10-18T07:02:46.722Z,7.28
2022-10-18T07:05:13.506Z,7.85
2022-10-18T07:07:40.214Z,9.80
2022-10-18T07:10:08.042Z,11.63
2022-10-18T07:12:36.058Z,7.70
2022-10-18T07:15:06.816Z,11.20
2022-10-18T07:17:35.748Z,8.98
2022-10-18T07:20:04.390Z,9.70
2022-10-18T07:22:31.024Z,9.88
2022-10-18T07:24:57.875Z,12.73
2022-10-18T07:27:24.560Z,9.13
2022-10-18T07:29:51.341Z,11.05
2022-10-18T07:32:18.008Z,11.00
2022-10-18T07:34:44.676Z,11.05
2022-10-18T07:37:11.556Z,13.60
2022-10-18T07:39:38.201Z,13.07
2022-10-18T07:42:04.880Z,11.90
2022-10-18T07:44:31.546Z,13.80
2022-10-18T07:46:58.238Z,12.43
2022-10-18T07:49:24.871Z,11.38
2022-10-18T07:51:51.527Z,12.10
2022-10-18T07:54:18.462Z,12.68
2022-10-18T07:56:45.115Z,12.43
2022-10-18T07:59:12.323Z,13.13
2022-10-18T08:01:39.175Z,11.98
2022-10-18T08:04:07.919Z,12.85
2022-10-18T08:06:35.769Z,12.75
2022-10-18T08:09:03.022Z,15.93
2022-10-18T08:11:29.712Z,13.43
2022-10-18T08:13:56.418Z,16.27
2022-10-18T08:16:25.703Z,15.55
2022-10-18T08:18:52.753Z,22.30
2022-10-18T08:21:21.257Z,14.48
2022-10-18T08:23:48.202Z,13.57
2022-10-18T08:26:20.080Z,15.30
2022-10-18T08:28:54.088Z,16.80
2022-10-18T08:31:25.677Z,14.85
2022-10-18T08:33:52.411Z,14.23
2022-10-18T08:36:19.531Z,15.43
2022-10-18T08:38:46.351Z,15.48
2022-10-18T08:41:31.814Z,14.55
2022-10-18T08:44:07.901Z,15.65
2022-10-18T08:46:36.228Z,13.63
2022-10-18T08:49:04.012Z,14.18
2022-10-18T08:51:44.048Z,10.35
2022-10-18T08:54:16.296Z,12.38
2022-10-18T08:56:47.260Z,11.30
2022-10-18T08:59:14.278Z,10.38
2022-10-18T09:02:03.293Z,9.70
2022-10-18T09:05:07.614Z,10.63
2022-10-18T09:07:52.637Z,11.68
2022-10-18T09:10:55.745Z,8.55
2022-10-18T09:13:48.226Z,12.13
2022-10-18T09:16:22.275Z,10.18
2022-10-18T09:18:48.989Z,9.23
2022-10-18T09:21:42.280Z,11.02
2022-10-18T09:24:14.749Z,10.32
2022-10-18T09:26:49.167Z,13.10
2022-10-18T09:29:31.836Z,12.23
2022-10-18T09:32:03.884Z,13.60
2022-10-18T09:34:39.022Z,12.25
2022-10-18T09:37:11.575Z,9.90
2022-10-18T09:39:38.425Z,12.18
2022-10-18T09:42:28.324Z,10.73
2022-10-18T09:45:04.215Z,11.05
2022-10-18T09:47:37.862Z,14.52
2022-10-18T09:50:17.726Z,13.77
2022-10-18T09:53:00.243Z,11.90
2022-10-18T09:55:32.032Z,12.07
2022-10-18T09:58:01.011Z,12.73
2022-10-18T10:00:49.979Z,12.75
2022-10-18T10:03:16.780Z,12.13
2022-10-18T10:05:44.096Z,13.95
2022-10-18T10:08:11.210Z,14.65
2022-10-18T10:10:46.831Z,12.07
2022-10-18T10:13:28.072Z,12.98
2022-10-18T10:16:01.891Z,11.18
2022-10-18T10:18:34.002Z,11.75
2022-10-18T10:21:06.240Z,12.52
2022-10-18T10:23:38.317Z,10.70
2022-10-18T10:26:18.924Z,11.65
2022-10-18T10:28:49.007Z,12.32
2022-10-18T10:31:19.279Z,11.30
2022-10-18T10:33:47.744Z,13.35
2022-10-18T10:36:20.826Z,13.50
2022-10-18T10:39:21.278Z,11.35
2022-10-18T10:41:59.350Z,10.93
2022-10-18T10:44:30.663Z,10.80
2022-10-18T10:46:58.192Z,14.52
2022-10-18T10:49:40.784Z,11.20
2022-10-18T10:52:26.940Z,13.85
2022-10-18T10:55:05.834Z,9.60
2022-10-18T10:57:38.709Z,10.27
2022-10-18T11:00:05.755Z,11.45
2022-10-18T11:02:34.693Z,8.40
2022-10-18T11:05:24.356Z,12.15
2022-10-18T11:07:53.121Z,9.98
2022-10-18T11:10:23.243Z,12.95
2022-10-18T11:13:02.644Z,8.55
2022-10-18T11:16:00.527Z,13.50
2022-10-18T11:18:34.857Z,14.23
2022-10-18T11:21:11.715Z,10.73
2022-10-18T11:23:40.157Z,13.50
2022-10-18T11:26:12.981Z,11.90
2022-10-18T11:29:44.622Z,10.00
2022-10-18T11:32:14.276Z,10.15
2022-10-18T11:34:50.165Z,9.63
2022-10-18T11:37:39.661Z,8.80
2022-10-18T11:40:24.561Z,9.40
2022-10-18T11:43:38.911Z,9.80
2022-10-18T11:46:54.484Z,7.80
2022-10-18T11:49:49.092Z,9.95
2022-10-18T11:52:34.542Z,10.02
2022-10-18T11:55:12.889Z,9.63
2022-10-18T11:58:20.902Z,9.45
2022-10-18T12:00:54.484Z,9.02
2022-10-18T12:03:33.885Z,11.80
2022-10-18T12:06:05.764Z,11.68
2022-10-18T12:08:53.270Z,8.20
2022-10-18T12:11:23.832Z,9.38
2022-10-18T12:13:53.930Z,8.02
2022-10-18T12:16:39.009Z,9.65
2022-10-18T12:19:23.298Z,9.77
2022-10-18T12:21:55.223Z,8.07
2022-10-18T12:24:25.750Z,8.80
2022-10-18T12:26:58.057Z,8.63
2022-10-18T12:29:26.103Z,19.77
2022-10-18T12:32:03.167Z,15.82
2022-10-18T12:34:36.808Z,19.15
2022-10-18T12:37:27.897Z,16.65
2022-10-18T12:40:18.823Z,15.93
2022-10-18T12:42:49.779Z,13.07
2022-10-18T12:45:30.338Z,14.73
2022-10-18T12:48:05.646Z,11.73
2022-10-18T12:50:38.084Z,10.52
2022-10-18T12:53:26.776Z,8.65
2022-10-18T12:55:54.445Z,12.15
2022-10-18T12:58:23.146Z,9.43
2022-10-18T13:00:49.766Z,9.90
2022-10-18T13:03:17.425Z,9.63
2022-10-18T13:05:55.248Z,8.85
2022-10-18T13:08:34.614Z,11.38
2022-10-18T13:11:10.569Z,10.70
2022-10-18T13:13:40.053Z,11.25
2022-10-18T13:16:20.617Z,13.48
2022-10-18T13:18:53.637Z,11.63
2022-10-18T13:21:40.044Z,13.75
2022-10-18T13:24:36.086Z,10.70
2022-10-18T13:27:42.185Z,13.00
2022-10-18T13:30:18.590Z,14.90
2022-10-18T13:32:57.534Z,17.33
2022-10-18T13:35:46.135Z,14.15
2022-10-18T13:38:34.167Z,13.00
2022-10-18T13:41:03.115Z,12.18
2022-10-18T13:43:57.830Z,13.45
2022-10-18T13:46:33.808Z,13.93
2022-10-18T13:49:21.866Z,14.25
2022-10-18T13:52:29.719Z,14.75
2022-10-18T13:55:27.127Z,16.90
2022-10-18T13:58:09.259Z,12.00
2022-10-18T14:01:04.108Z,12.77
2022-10-18T14:03:59.592Z,16.38
2022-10-18T14:06:34.784Z,14.27
2022-10-18T14:09:26.141Z,11.73
2022-10-18T14:12:26.954Z,14.57
2022-10-18T14:15:05.888Z,17.73
2022-10-18T14:17:47.003Z,15.00
2022-10-18T14:20:16.980Z,12.40
2022-10-18T14:22:48.854Z,14.27
2022-10-18T14:25:28.182Z,11.88
2022-10-18T14:28:12.598Z,9.30
2022-10-18T14:31:00.143Z,11.75
2022-10-18T14:33:38.483Z,11.68
2022-10-18T14:36:20.489Z,13.40
2022-10-18T14:38:50.930Z,12.85
2022-10-18T14:41:22.330Z,11.35
2022-10-18T14:43:49.909Z,12.95
2022-10-18T14:46:27.285Z,14.70
2022-10-18T14:49:04.489Z,16.55
2022-10-18T14:51:34.557Z,16.10
2022-10-18T14:54:01.486Z,12.30
2022-10-18T14:56:33.739Z,15.02
2022-10-18T14:59:03.178Z,13.43
2022-10-18T15:01:31.640Z,16.55
2022-10-18T15:04:08.599Z,14.35
2022-10-18T15:06:35.376Z,17.17
2022-10-18T15:09:04.645Z,17.00
2022-10-18T15:11:32.404Z,18.85
2022-10-18T15:14:06.980Z,15.88
2022-10-18T15:16:34.210Z,14.07
2022-10-18T15:19:03.909Z,13.43
2022-10-18T15:21:31.280Z,12.70
2022-10-18T15:24:34.583Z,14.88
2022-10-18T15:27:23.140Z,11.10
2022-10-18T15:29:50.213Z,14.95
2022-10-18T15:32:31.124Z,13.70
2022-10-18T15:35:34.848Z,12.23
2022-10-18T15:38:16.170Z,12.98
2022-10-18T15:40:43.324Z,13.20
2022-10-18T15:43:28.539Z,11.13
2022-10-18T15:46:01.567Z,13.07
2022-10-18T15:48:42.513Z,14.52
2022-10-18T15:51:24.007Z,15.57
2022-10-18T15:53:54.681Z,14.27
2022-10-18T15:56:37.610Z,15.57
2022-10-18T15:59:06.821Z,16.08
2022-10-18T16:01:36.424Z,15.23
2022-10-18T16:04:18.284Z,12.57
2022-10-18T16:06:45.062Z,12.02
2022-10-18T16:09:17.410Z,15.90
2022-10-18T16:11:44.582Z,15.00
2022-10-18T16:14:11.333Z,15.82
2022-10-18T16:16:39.445Z,17.60
2022-10-18T16:19:07.074Z,17.85
2022-10-18T16:21:38.506Z,18.77
2022-10-18T16:24:06.032Z,16.45
2022-10-18T16:26:33.174Z,20.17
2022-10-18T16:29:00.252Z,19.13
2022-10-18T16:31:29.138Z,18.52
2022-10-18T16:33:57.122Z,22.45
2022-10-18T16:36:27.045Z,27.40
2022-10-18T16:38:55.218Z,25.50
2022-10-18T16:41:22.264Z,22.27
2022-10-18T16:43:50.293Z,19.38
2022-10-18T16:46:22.759Z,20.60
2022-10-18T16:48:50.675Z,19.45
2022-10-18T16:51:17.799Z,18.90
2022-10-18T16:53:44.723Z,17.23
2022-10-18T16:56:20.043Z,16.38
2022-10-18T16:58:47.948Z,18.15
2022-10-18T17:01:16.859Z,17.58
2022-10-18T17:03:44.290Z,13.98
2022-10-18T17:06:31.262Z,14.02
2022-10-18T17:08:58.665Z,14.50
2022-10-18T17:11:27.193Z,15.30
2022-10-18T17:13:54.515Z,16.48
2022-10-18T17:16:33.020Z,15.88
2022-10-18T17:19:02.033Z,16.52
2022-10-18T17:21:31.745Z,13.70
2022-10-18T17:24:02.348Z,14.63
2022-10-18T17:26:30.266Z,13.77
2022-10-18T17:29:05.590Z,16.23
2022-10-18T17:31:33.069Z,15.45
2022-10-18T17:34:01.957Z,16.90
2022-10-18T17:36:30.811Z,15.85
2022-10-18T17:38:58.086Z,16.85
2022-10-18T17:41:26.685Z,15.65
2022-10-18T17:43:53.613Z,16.73
2022-10-18T17:46:21.571Z,13.95
2022-10-18T17:48:48.465Z,15.40
2022-10-18T17:51:17.255Z,14.18
2022-10-18T17:53:45.064Z,14.77
2022-10-18T17:56:12.826Z,15.43
2022-10-18T17:58:40.169Z,14.88
2022-10-18T18:01:12.054Z,17.45
2022-10-18T18:03:39.206Z,14.45
2022-10-18T18:06:16.153Z,12.35
2022-10-18T18:08:43.169Z,15.05
2022-10-18T18:11:10.096Z,17.15
2022-10-18T18:13:37.062Z,15.48
2022-10-18T18:16:14.161Z,13.98
2022-10-18T18:18:41.044Z,13.77
2022-10-18T18:21:07.698Z,13.43
2022-10-18T18:23:34.708Z,12.45
2022-10-18T18:26:01.622Z,11.90
2022-10-18T18:28:28.751Z,13.07
2022-10-18T18:30:55.921Z,12.35
2022-10-18T18:33:26.252Z,14.07
2022-10-18T18:35:57.347Z,15.07
2022-10-18T18:38:26.199Z,13.85
2022-10-18T18:41:23.154Z,13.65
2022-10-18T18:43:59.312Z,16.98
2022-10-18T18:46:29.034Z,14.02
2022-10-18T18:48:57.460Z,13.15
2022-10-18T18:51:26.940Z,13.68
2022-10-18T18:53:53.746Z,14.13
2022-10-18T18:56:25.275Z,16.55
2022-10-18T18:58:53.468Z,13.32
2022-10-18T19:01:25.330Z,17.35
2022-10-18T19:03:53.617Z,13.25
2022-10-18T19:06:28.980Z,14.55
2022-10-18T19:09:04.617Z,17.17
2022-10-18T19:11:34.635Z,13.48
2022-10-18T19:14:04.239Z,14.27
2022-10-18T19:16:35.190Z,16.55
2022-10-18T19:19:05.321Z,17.20
2022-10-18T19:21:36.886Z,18.02
2022-10-18T19:24:04.671Z,17.65
2022-10-18T19:26:34.512Z,18.10
2022-10-18T19:29:10.027Z,20.35
2022-10-18T19:31:37.663Z,18.17
2022-10-18T19:34:06.729Z,18.20
2022-10-18T19:36:35.272Z,16.13
2022-10-18T19:39:02.815Z,22.48
2022-10-18T19:41:29.826Z,13.35
2022-10-18T19:43:57.300Z,15.73
2022-10-18T19:46:25.092Z,17.73
2022-10-18T19:48:54.284Z,17.95
2022-10-18T19:51:31.478Z,20.80
2022-10-18T19:53:59.311Z,13.15
2022-10-18T19:56:27.483Z,15.52
2022-10-18T19:58:54.837Z,15.57
2022-10-18T20:01:22.501Z,14.70
2022-10-18T20:03:49.710Z,13.93
2022-10-18T20:06:18.216Z,14.02
2022-10-18T20:08:45.039Z,13.48
2022-10-18T20:11:14.870Z,18.92
2022-10-18T20:13:46.906Z,12.75
2022-10-18T20:16:19.255Z,13.10
2022-10-18T20:18:46.937Z,14.05
2022-10-18T20:21:16.325Z,13.82
2022-10-18T20:23:44.174Z,12.27
2022-10-18T20:26:19.809Z,12.85
2022-10-18T20:28:59.603Z,12.85
2022-10-18T20:31:31.632Z,12.65
2022-10-18T20:34:01.027Z,11.18
2022-10-18T20:36:29.331Z,12.60
2022-10-18T20:38:56.243Z,11.60
2022-10-18T20:41:25.822Z,12.20
2022-10-18T20:43:58.149Z,12.57
2022-10-18T20:46:25.835Z,11.43
2022-10-18T20:48:53.649Z,12.68
2022-10-18T20:51:21.024Z,11.93
2022-10-18T20:53:47.696Z,10.88
2022-10-18T20:56:16.899Z,10.98
2022-10-18T20:58:44.916Z,10.63
2022-10-18T21:01:23.369Z,14.82
2022-10-18T21:03:51.621Z,11.18
2022-10-18T21:06:19.787Z,9.73
2022-10-18T21:08:47.375Z,13.02
2022-10-18T21:11:15.199Z,13.90
2022-10-18T21:13:41.872Z,9.52
2022-10-18T21:16:08.704Z,14.13
2022-10-18T21:18:37.090Z,10.68
2022-10-18T21:23:40.801Z,11.70
2022-10-18T21:26:07.894Z,12.82
2022-10-18T21:28:34.854Z,8.63
2022-10-18T21:31:17.402Z,10.25
2022-10-18T21:33:44.695Z,8.93
2022-10-18T21:36:12.241Z,7.53
2022-10-18T21:38:44.349Z,11.38
2022-10-18T21:41:12.454Z,9.13
2022-10-18T21:43:41.140Z,10.73
2022-10-18T21:46:07.980Z,7.63
2022-10-18T21:48:34.620Z,7.15
2022-10-18T21:51:05.675Z,13.93
2022-10-18T21:53:32.533Z,9.95
2022-10-18T21:56:13.594Z,8.73
2022-10-18T21:58:41.127Z,7.57
2022-10-18T22:01:16.578Z,9.20
2022-10-18T22:03:44.529Z,10.35
2022-10-18T22:06:16.665Z,7.75
2022-10-18T22:08:45.343Z,9.13
2022-10-18T22:11:12.914Z,5.78
2022-10-18T22:13:40.088Z,10.27
2022-10-18T22:16:08.031Z,6.05
2022-10-18T22:18:35.033Z,8.10
2022-10-18T22:21:07.158Z,8.65
2022-10-18T22:23:36.175Z,9.63
2022-10-18T22:26:05.161Z,9.50
2022-10-18T22:28:31.908Z,6.90
2022-10-18T22:30:59.206Z,7.70
2022-10-18T22:33:27.254Z,6.13
2022-10-18T22:35:53.928Z,7.93
2022-10-18T22:38:20.788Z,7.60
2022-10-18T22:40:47.575Z,6.95
2022-10-18T22:43:14.330Z,7.28
2022-10-18T22:45:41.818Z,6.32
2022-10-18T22:48:08.577Z,7.75
2022-10-18T22:50:35.212Z,8.70
2022-10-18T22:53:01.900Z,4.65
2022-10-18T22:55:28.521Z,8.80
2022-10-18T22:57:56.105Z,9.77
2022-10-18T23:00:22.804Z,11.30
2022-10-18T23:02:50.085Z,10.75
2022-10-18T23:05:16.803Z,9.50
2022-10-18T23:07:47.756Z,6.47
2022-10-18T23:10:14.770Z,11.52
2022-10-18T23:12:41.531Z,11.77
2022-10-18T23:15:08.512Z,6.93
2022-10-18T23:17:35.535Z,12.63
2022-10-18T23:20:02.562Z,7.80
2022-10-18T23:22:29.234Z,9.18
2022-10-18T23:24:56.041Z,9.93
2022-10-18T23:27:22.717Z,6.32
2022-10-18T23:29:49.352Z,13.77
2022-10-18T23:32:16.545Z,15.40
2022-10-18T23:34:43.269Z,5.72
2022-10-18T23:37:09.938Z,5.63
2022-10-18T23:39:36.623Z,7.30
2022-10-18T23:42:03.292Z,4.57
2022-10-18T23:44:30.031Z,6.95
2022-10-18T23:46:56.762Z,9.80
2022-10-18T23:49:23.442Z,7.70
2022-10-18T23:51:50.109Z,7.88
2022-10-18T23:54:16.907Z,10.18
2022-10-18T23:56:43.559Z,6.82
2022-10-18T23:59:10.197Z,7.90
